Time;durP1;ratioP1;P1;durP2;ratioP2;P2;SDS_P1;SDS_P2;PMS_P1;PMS_P2;Temp;Humidity;BMP_temperature;BMP_pressure;BME280_temperature;BME280_humidity;BME280_pressure;Samples;Min_cycle;Max_cycle;Signal;HPM_P1;HPM_P2
2022/05/28 00:00:54;;;;;;;5.57;1.50;;;17.50;98.40;;;;;;5052745;28;20062;-79
2022/05/28 00:03:20;;;;;;;5.13;1.40;;;17.50;98.50;;;;;;5053349;28;20055;-79
2022/05/28 00:05:47;;;;;;;4.10;1.42;;;17.50;98.60;;;;;;5053052;28;20480;-80
2022/05/28 00:08:13;;;;;;;3.17;1.50;;;17.50;98.60;;;;;;5054025;28;20025;-80
2022/05/28 00:10:39;;;;;;;2.25;1.55;;;17.50;98.90;;;;;;5053598;28;20078;-79
2022/05/28 00:13:05;;;;;;;4.80;1.75;;;17.40;99.00;;;;;;5051377;28;20029;-79
2022/05/28 00:15:31;;;;;;;2.42;1.40;;;17.40;99.00;;;;;;5053465;28;20496;-79
2022/05/28 00:17:59;;;;;;;3.08;1.55;;;17.50;98.90;;;;;;5052898;28;20057;-79
2022/05/28 00:20:25;;;;;;;4.53;1.30;;;17.60;98.90;;;;;;5052600;28;20029;-78
2022/05/28 00:22:51;;;;;;;4.07;1.70;;;17.50;99.00;;;;;;5052908;28;20025;-77
2022/05/28 00:25:18;;;;;;;2.60;1.40;;;17.30;99.10;;;;;;5052911;28;20063;-78
2022/05/28 00:27:44;;;;;;;5.32;1.95;;;17.30;99.30;;;;;;5053191;28;20071;-78
2022/05/28 00:30:13;;;;;;;3.17;1.40;;;17.40;99.50;;;;;;5052951;28;20112;-78
2022/05/28 00:32:41;;;;;;;4.00;1.70;;;17.40;99.40;;;;;;5052709;28;20554;-77
2022/05/28 00:35:12;;;;;;;2.85;1.52;;;17.40;99.40;;;;;;5052232;28;20112;-78
2022/05/28 00:37:38;;;;;;;3.53;1.95;;;17.30;99.50;;;;;;5034514;28;20037;-78
2022/05/28 00:40:06;;;;;;;2.90;1.60;;;17.20;99.70;;;;;;5052655;28;20033;-79
2022/05/28 00:42:32;;;;;;;4.60;1.70;;;17.20;99.90;;;;;;5052369;28;20021;-78
2022/05/28 00:44:58;;;;;;;3.55;1.88;;;17.10;99.90;;;;;;5052112;28;20411;-80
2022/05/28 00:47:24;;;;;;;4.07;1.58;;;17.10;99.90;;;;;;5053316;28;20092;-79
2022/05/28 00:49:51;;;;;;;2.95;1.52;;;17.10;99.90;;;;;;5050989;28;20032;-79
2022/05/28 00:52:20;;;;;;;5.03;1.80;;;17.10;99.90;;;;;;5034095;28;20040;-79
2022/05/28 00:54:48;;;;;;;4.72;1.95;;;17.10;99.90;;;;;;5034956;28;20358;-79
2022/05/28 00:57:16;;;;;;;4.88;1.95;;;16.90;99.90;;;;;;5042072;28;20061;-79
2022/05/28 00:59:43;;;;;;;4.40;1.45;;;16.90;99.90;;;;;;5032389;28;20025;-79
2022/05/28 01:02:16;;;;;;;4.55;1.63;;;16.90;99.90;;;;;;5039323;28;20033;-79
2022/05/28 01:05:14;;;;;;;4.50;1.90;;;17.00;99.90;;;;;;5032048;28;20056;-79
2022/05/28 01:07:55;;;;;;;8.40;2.60;;;17.00;99.90;;;;;;5028387;28;20065;-78
2022/05/28 01:10:33;;;;;;;5.00;1.90;;;17.00;99.90;;;;;;5032495;28;20110;-79
2022/05/28 01:13:16;;;;;;;4.43;1.80;;;16.90;99.90;;;;;;5040874;28;20082;-80
2022/05/28 01:15:48;;;;;;;4.03;1.77;;;16.90;99.90;;;;;;5052147;28;20025;-79
2022/05/28 01:18:26;;;;;;;3.58;1.70;;;16.80;99.90;;;;;;5051706;28;20075;-79
2022/05/28 01:20:56;;;;;;;2.90;1.73;;;16.80;99.90;;;;;;5049155;28;20032;-79
2022/05/28 01:23:55;;;;;;;3.95;1.90;;;16.80;99.90;;;;;;5032335;28;20405;-79
2022/05/28 01:26:26;;;;;;;3.60;1.90;;;16.70;99.90;;;;;;5032156;28;20025;-79
2022/05/28 01:29:02;;;;;;;5.60;1.75;;;16.70;99.90;;;;;;5036543;28;20021;-79
2022/05/28 01:31:30;;;;;;;3.78;1.60;;;16.70;99.90;;;;;;5042086;28;20091;-80
2022/05/28 01:33:59;;;;;;;3.55;1.70;;;16.60;99.90;;;;;;5014148;28;20029;-79
2022/05/28 01:36:26;;;;;;;3.00;1.85;;;16.60;99.90;;;;;;5030734;28;20040;-80
2022/05/28 01:38:54;;;;;;;3.40;1.30;;;16.50;99.90;;;;;;5052299;28;20027;-80
2022/05/28 01:41:22;;;;;;;3.13;1.50;;;16.50;99.90;;;;;;5051813;28;20029;-79
2022/05/28 01:43:49;;;;;;;4.20;1.83;;;16.50;99.90;;;;;;5050325;28;20426;-79
2022/05/28 01:46:18;;;;;;;9.75;2.75;;;16.40;99.90;;;;;;5051592;28;20017;-79
2022/05/28 01:48:45;;;;;;;8.50;1.70;;;16.50;99.90;;;;;;5051995;28;20029;-79
2022/05/28 01:51:13;;;;;;;2.78;1.83;;;16.40;99.90;;;;;;5051485;28;20146;-79
2022/05/28 01:56:24;;;;;;;5.88;1.75;;;16.40;99.90;;;;;;5032024;28;20032;-79
2022/05/28 01:58:51;;;;;;;4.07;1.80;;;16.40;99.90;;;;;;5033596;28;20021;-79
2022/05/28 02:01:17;;;;;;;4.10;1.80;;;16.40;99.90;;;;;;5051156;28;20021;-79
2022/05/28 02:03:46;;;;;;;4.53;1.95;;;16.30;99.90;;;;;;5033431;28;20408;-79
2022/05/28 02:06:12;;;;;;;3.88;1.80;;;16.30;99.90;;;;;;5047663;28;20159;-79
2022/05/28 02:08:42;;;;;;;4.47;2.00;;;16.20;99.90;;;;;;5048869;28;20147;-79
2022/05/28 02:11:20;;;;;;;4.72;1.63;;;16.20;99.90;;;;;;5051122;28;20120;-80
2022/05/28 02:13:55;;;;;;;5.10;1.70;;;16.20;99.90;;;;;;5051552;28;20028;-79
2022/05/28 02:16:59;;;;;;;3.03;1.55;;;16.20;99.90;;;;;;5032738;28;20569;-79
2022/05/28 02:19:37;;;;;;;3.10;1.73;;;16.10;99.90;;;;;;5027764;28;20082;-78
2022/05/28 02:22:12;;;;;;;6.20;1.70;;;16.10;99.90;;;;;;5051636;28;20050;-80
2022/05/28 02:24:44;;;;;;;5.45;1.40;;;16.10;99.90;;;;;;5051561;28;20025;-79
2022/05/28 02:27:14;;;;;;;5.88;2.00;;;16.10;99.90;;;;;;5051720;28;20025;-79
2022/05/28 02:29:41;;;;;;;2.85;1.40;;;16.00;99.90;;;;;;5050498;28;20029;-79
2022/05/28 02:32:23;;;;;;;5.75;1.80;;;15.90;99.90;;;;;;5051214;28;20495;-79
2022/05/28 02:34:50;;;;;;;;;;;15.80;99.90;;;;;;5051176;28;20029;-79
2022/05/28 02:37:19;;;;;;;5.22;2.03;;;15.90;99.90;;;;;;5051172;28;19911;-79
2022/05/28 02:39:45;;;;;;;4.82;1.85;;;15.90;99.90;;;;;;5051709;28;20055;-80
2022/05/28 02:42:11;;;;;;;3.80;1.58;;;15.80;99.90;;;;;;5040660;28;20022;-79
2022/05/28 02:44:36;;;;;;;4.63;1.42;;;15.70;99.90;;;;;;5031161;28;20045;-79
2022/05/28 02:47:03;;;;;;;2.70;1.48;;;15.70;99.90;;;;;;5013495;28;20025;-79
2022/05/28 02:49:29;;;;;;;3.35;1.70;;;15.70;99.90;;;;;;5031634;28;20048;-79
2022/05/28 02:51:55;;;;;;;3.10;1.80;;;15.70;99.90;;;;;;5031265;28;20029;-80
2022/05/28 02:54:22;;;;;;;4.07;2.00;;;15.70;99.90;;;;;;5013097;28;20048;-79
2022/05/28 02:56:48;;;;;;;5.90;1.80;;;15.60;99.90;;;;;;5031244;28;20021;-78
2022/05/28 02:59:15;;;;;;;4.38;1.70;;;15.60;99.90;;;;;;5047339;28;20068;-79
2022/05/28 03:01:41;;;;;;;6.90;1.83;;;15.60;99.90;;;;;;5040467;28;20021;-78
2022/05/28 03:04:08;;;;;;;4.65;1.60;;;15.50;99.90;;;;;;5031334;28;20045;-79
2022/05/28 03:06:35;;;;;;;3.47;1.25;;;15.50;99.90;;;;;;5032371;28;20023;-79
2022/05/28 03:09:02;;;;;;;3.83;2.03;;;15.60;99.90;;;;;;5034863;28;20018;-79
2022/05/28 03:11:27;;;;;;;4.78;1.90;;;15.60;99.90;;;;;;5052099;28;20025;-78
2022/05/28 03:13:53;;;;;;;3.75;1.80;;;15.50;99.90;;;;;;5054621;28;20377;-79
2022/05/28 03:16:19;;;;;;;6.25;1.83;;;15.50;99.90;;;;;;5054303;28;20111;-79
2022/05/28 03:18:45;;;;;;;4.63;1.77;;;15.40;99.90;;;;;;5054595;28;20033;-79
2022/05/28 03:21:11;;;;;;;2.92;1.50;;;15.40;99.90;;;;;;5054207;28;20547;-79
2022/05/28 03:23:37;;;;;;;4.90;1.50;;;15.40;99.90;;;;;;5038407;28;20112;-80
2022/05/28 03:26:12;;;;;;;2.97;1.60;;;15.30;99.90;;;;;;5034499;28;20033;-79
2022/05/28 03:28:38;;;;;;;6.28;2.22;;;15.20;99.90;;;;;;5033879;28;20045;-79
2022/05/28 03:31:04;;;;;;;2.20;1.58;;;15.10;99.90;;;;;;5016652;28;20030;-79
2022/05/28 03:33:29;;;;;;;4.55;1.92;;;15.10;99.90;;;;;;5034242;28;20033;-79
2022/05/28 03:35:55;;;;;;;5.78;1.70;;;15.00;99.90;;;;;;5051668;28;20516;-80
2022/05/28 03:38:20;;;;;;;6.47;1.67;;;14.90;99.90;;;;;;5054273;28;20033;-80
2022/05/28 03:40:46;;;;;;;3.25;1.60;;;14.90;99.90;;;;;;5053096;28;20021;-80
2022/05/28 03:43:12;;;;;;;4.13;1.85;;;14.90;99.90;;;;;;5053950;28;20503;-79
2022/05/28 03:45:37;;;;;;;4.97;2.20;;;14.90;99.90;;;;;;5036162;28;20147;-80
2022/05/28 03:48:06;;;;;;;6.18;2.40;;;14.90;99.90;;;;;;5053288;28;20029;-81
2022/05/28 03:50:32;;;;;;;4.95;1.90;;;15.00;99.90;;;;;;5053170;28;20040;-79
2022/05/28 03:52:57;;;;;;;4.53;1.83;;;15.00;99.90;;;;;;5036320;28;20029;-80
2022/05/28 03:55:23;;;;;;;4.68;2.33;;;15.00;99.90;;;;;;5053321;28;20077;-80
2022/05/28 03:57:48;;;;;;;6.57;2.30;;;14.90;99.90;;;;;;5053553;28;20040;-79
2022/05/28 04:00:15;;;;;;;2.58;1.83;;;15.10;99.90;;;;;;5034513;28;20030;-79
2022/05/28 04:02:41;;;;;;;4.60;1.90;;;14.90;99.90;;;;;;5033581;28;20109;-80
2022/05/28 04:05:07;;;;;;;3.65;1.80;;;14.80;99.90;;;;;;5033812;28;20448;-79
2022/05/28 04:07:33;;;;;;;4.50;2.13;;;14.80;99.90;;;;;;5038157;28;20528;-79
2022/05/28 04:10:00;;;;;;;6.80;1.58;;;14.90;99.90;;;;;;5052968;28;20052;-81
2022/05/28 04:12:25;;;;;;;5.63;2.30;;;14.90;99.90;;;;;;5052938;28;20024;-80
2022/05/28 04:14:51;;;;;;;5.15;2.15;;;14.90;99.90;;;;;;5053170;28;20037;-79
2022/05/28 04:17:17;;;;;;;7.07;1.90;;;14.90;99.90;;;;;;5053451;28;20464;-80
2022/05/28 04:19:42;;;;;;;4.75;2.25;;;14.60;99.90;;;;;;5053636;28;20396;-79
2022/05/28 04:22:08;;;;;;;5.57;2.47;;;14.60;99.90;;;;;;5052214;28;20054;-79
2022/05/28 04:24:34;;;;;;;3.50;2.20;;;14.60;99.90;;;;;;5032967;28;20496;-79
2022/05/28 04:27:00;;;;;;;15.63;2.17;;;14.50;99.90;;;;;;5040754;28;20044;-79
2022/05/28 04:29:25;;;;;;;4.45;2.50;;;14.30;99.90;;;;;;5033141;28;20033;-80
2022/05/28 04:31:51;;;;;;;3.38;2.20;;;14.20;99.90;;;;;;5033266;28;20392;-79
2022/05/28 04:34:16;;;;;;;5.22;2.33;;;14.40;99.90;;;;;;5033620;28;20104;-79
2022/05/28 04:36:42;;;;;;;3.75;2.13;;;14.40;99.90;;;;;;5034824;28;20025;-79
2022/05/28 04:39:08;;;;;;;5.75;2.63;;;14.50;99.90;;;;;;5052996;28;20484;-79
2022/05/28 04:41:34;;;;;;;4.97;2.38;;;14.40;99.90;;;;;;5052572;28;20037;-79
2022/05/28 04:43:59;;;;;;;6.57;2.22;;;14.40;99.90;;;;;;5052602;28;20152;-79
2022/05/28 04:46:25;;;;;;;4.30;2.05;;;14.50;99.90;;;;;;5052678;28;20024;-80
2022/05/28 04:48:50;;;;;;;4.97;2.17;;;14.50;99.90;;;;;;5044975;28;20529;-80
2022/05/28 04:51:16;;;;;;;4.60;2.03;;;14.50;99.90;;;;;;5032977;28;20029;-81
2022/05/28 04:53:42;;;;;;;4.05;2.05;;;14.50;99.90;;;;;;5032263;28;20104;-79
2022/05/28 04:56:08;;;;;;;3.78;2.42;;;14.50;99.90;;;;;;5033079;28;20392;-79
2022/05/28 04:58:34;;;;;;;3.40;2.30;;;14.50;99.90;;;;;;5032407;28;20493;-80
2022/05/28 05:00:59;;;;;;;7.10;2.15;;;14.40;99.90;;;;;;5037810;28;20424;-79
2022/05/28 05:03:25;;;;;;;4.78;2.53;;;14.30;99.90;;;;;;5052113;28;20036;-80
2022/05/28 05:05:51;;;;;;;4.07;2.47;;;14.30;99.90;;;;;;5052335;28;20104;-79
2022/05/28 05:08:16;;;;;;;4.47;2.63;;;14.40;99.90;;;;;;5043407;28;20037;-79
2022/05/28 05:10:44;;;;;;;5.70;2.40;;;14.40;99.90;;;;;;5031866;28;20060;-79
2022/05/28 05:13:10;;;;;;;5.53;2.58;;;14.40;99.90;;;;;;5040776;28;20033;-79
2022/05/28 05:15:38;;;;;;;5.22;2.92;;;14.40;99.90;;;;;;5052003;28;20029;-79
2022/05/28 05:18:04;;;;;;;6.22;2.83;;;14.30;99.90;;;;;;5052237;28;20063;-79
2022/05/28 05:20:30;;;;;;;3.92;2.40;;;14.40;99.90;;;;;;5052496;28;20488;-80
2022/05/28 05:22:56;;;;;;;3.85;2.25;;;14.50;99.90;;;;;;5052255;28;20052;-79
2022/05/28 05:25:23;;;;;;;6.63;2.90;;;14.50;99.90;;;;;;5039309;28;20087;-80
2022/05/28 05:27:50;;;;;;;5.93;2.45;;;14.60;99.90;;;;;;5032062;28;20017;-80
2022/05/28 05:30:16;;;;;;;6.88;2.78;;;14.60;99.90;;;;;;5031789;28;20400;-79
2022/05/28 05:32:41;;;;;;;3.65;2.22;;;14.50;99.90;;;;;;5031996;28;20070;-80
2022/05/28 05:35:07;;;;;;;5.88;2.70;;;14.60;99.90;;;;;;5043655;28;20476;-79
2022/05/28 05:37:33;;;;;;;3.40;2.58;;;14.60;99.90;;;;;;5051896;28;20503;-79
2022/05/28 05:39:59;;;;;;;12.88;2.70;;;14.60;99.90;;;;;;5051800;28;20247;-79
2022/05/28 05:42:24;;;;;;;7.80;2.97;;;14.80;99.90;;;;;;5033666;28;20119;-79
2022/05/28 05:44:50;;;;;;;6.63;2.90;;;14.70;99.90;;;;;;5049937;28;20036;-79
2022/05/28 05:47:16;;;;;;;10.07;3.05;;;14.60;99.90;;;;;;5051099;28;20606;-80
2022/05/28 05:49:42;;;;;;;5.07;2.60;;;14.70;99.90;;;;;;5051576;28;20108;-80
2022/05/28 05:52:08;;;;;;;6.40;3.22;;;14.60;99.90;;;;;;5052069;28;20507;-80
2022/05/28 05:54:33;;;;;;;5.38;3.00;;;14.70;99.90;;;;;;5051255;28;20108;-79
2022/05/28 05:56:59;;;;;;;6.45;3.50;;;14.80;99.90;;;;;;5051017;28;20028;-79
2022/05/28 05:59:25;;;;;;;7.68;3.03;;;14.70;99.90;;;;;;5051397;28;20025;-79
2022/05/28 06:01:51;;;;;;;6.18;3.65;;;14.90;99.90;;;;;;5051550;28;20028;-79
2022/05/28 06:04:16;;;;;;;6.40;2.80;;;14.90;99.90;;;;;;5051521;28;20132;-79
2022/05/28 06:06:42;;;;;;;6.95;3.40;;;15.00;99.90;;;;;;5050572;28;20103;-79
2022/05/28 06:09:09;;;;;;;6.88;3.53;;;15.00;99.90;;;;;;5041226;28;20029;-80
2022/05/28 06:11:34;;;;;;;6.65;3.13;;;15.10;99.90;;;;;;5031808;28;20033;-80
2022/05/28 06:14:00;;;;;;;7.38;2.72;;;15.10;99.90;;;;;;5031629;28;20030;-80
2022/05/28 06:16:26;;;;;;;7.07;3.17;;;15.20;99.90;;;;;;5014384;28;20021;-79
2022/05/28 06:18:52;;;;;;;8.23;3.10;;;15.30;99.90;;;;;;5031322;28;20037;-79
2022/05/28 06:21:18;;;;;;;6.55;3.15;;;15.40;99.90;;;;;;5041994;28;20029;-80
2022/05/28 06:23:44;;;;;;;6.45;2.72;;;15.50;99.90;;;;;;5036060;28;20033;-80
2022/05/28 06:26:11;;;;;;;5.28;2.92;;;15.50;99.90;;;;;;5031806;28;20036;-79
2022/05/28 06:28:37;;;;;;;4.93;2.47;;;15.60;99.90;;;;;;5031352;28;20083;-79
2022/05/28 06:31:05;;;;;;;8.70;2.97;;;15.60;99.90;;;;;;5039888;28;20025;-79
2022/05/28 06:33:31;;;;;;;4.55;2.45;;;15.60;99.90;;;;;;5020093;28;20030;-79
2022/05/28 06:35:59;;;;;;;6.93;2.35;;;15.70;99.90;;;;;;5031160;28;20064;-80
2022/05/28 06:38:25;;;;;;;6.38;3.10;;;15.90;99.90;;;;;;5031467;28;20079;-79
2022/05/28 06:40:51;;;;;;;7.00;2.90;;;16.00;99.90;;;;;;5031201;28;20030;-79
2022/05/28 06:43:17;;;;;;;4.53;2.85;;;16.10;99.90;;;;;;5035599;28;20029;-79
2022/05/28 06:45:42;;;;;;;4.18;2.95;;;16.00;99.90;;;;;;5035480;28;20033;-79
2022/05/28 06:48:08;;;;;;;6.10;2.80;;;16.10;99.90;;;;;;5035399;28;20095;-79
2022/05/28 06:53:20;;;;;;;5.35;2.67;;;16.30;99.90;;;;;;5034897;28;20025;-78
2022/05/28 06:55:47;;;;;;;3.95;2.45;;;16.40;99.90;;;;;;5046501;28;20048;-80
2022/05/28 06:58:13;;;;;;;5.20;3.03;;;16.40;99.90;;;;;;5055154;28;20021;-77
2022/05/28 07:00:39;;;;;;;3.88;2.15;;;16.50;99.90;;;;;;5041358;28;20428;-78
2022/05/28 07:03:05;;;;;;;5.00;2.20;;;16.50;99.90;;;;;;5034367;28;20029;-78
2022/05/28 07:05:31;;;;;;;5.40;2.38;;;16.60;99.90;;;;;;5017324;28;20036;-78
2022/05/28 07:07:57;;;;;;;3.22;2.08;;;16.70;99.90;;;;;;5033900;28;20029;-78
2022/05/28 07:10:23;;;;;;;9.73;2.75;;;16.80;99.90;;;;;;5034874;28;20033;-78
2022/05/28 07:12:49;;;;;;;5.10;2.10;;;16.80;99.90;;;;;;5045740;28;20115;-80
2022/05/28 07:15:15;;;;;;;4.47;2.08;;;16.90;99.90;;;;;;5054578;28;20036;-80
2022/05/28 07:17:41;;;;;;;4.03;2.15;;;16.90;99.90;;;;;;5054946;28;20025;-79
2022/05/28 07:20:09;;;;;;;4.05;2.30;;;17.00;99.90;;;;;;5050798;28;20029;-81
2022/05/28 07:22:35;;;;;;;4.00;2.47;;;17.20;99.90;;;;;;5048164;28;20025;-80
2022/05/28 07:25:01;;;;;;;8.32;2.53;;;17.20;99.90;;;;;;5027684;28;20029;-81
2022/05/28 07:27:27;;;;;;;7.78;2.30;;;17.30;99.90;;;;;;5035215;28;20021;-80
2022/05/28 07:29:56;;;;;;;5.85;2.40;;;17.30;99.90;;;;;;5017089;28;20378;-79
2022/05/28 07:32:29;;;;;;;5.40;2.35;;;17.40;99.90;;;;;;5035384;28;20053;-79
2022/05/28 07:34:55;;;;;;;4.35;2.20;;;17.40;99.90;;;;;;5034665;28;20033;-80
2022/05/28 07:37:21;;;;;;;4.47;2.28;;;17.50;99.90;;;;;;5034941;28;20049;-78
2022/05/28 07:39:47;;;;;;;4.40;2.45;;;17.60;99.90;;;;;;5034703;28;20061;-80
2022/05/28 07:42:13;;;;;;;4.95;2.17;;;17.60;99.90;;;;;;5034663;28;20100;-82
2022/05/28 07:44:40;;;;;;;7.75;2.35;;;17.70;99.90;;;;;;5034886;28;20071;-80
2022/05/28 07:47:06;;;;;;;7.43;2.85;;;17.80;99.90;;;;;;5034665;28;20024;-80
2022/05/28 07:49:37;;;;;;;5.00;2.00;;;17.80;99.90;;;;;;5034652;28;20034;-81
2022/05/28 07:52:03;;;;;;;7.57;2.40;;;17.80;99.90;;;;;;5034149;28;20041;-81
2022/05/28 07:54:29;;;;;;;7.57;2.25;;;17.80;99.90;;;;;;5034853;28;20032;-80
2022/05/28 07:56:55;;;;;;;3.83;2.15;;;17.90;99.90;;;;;;5016898;28;20026;-80
2022/05/28 07:59:21;;;;;;;4.97;2.72;;;18.00;99.90;;;;;;5037203;28;20068;-86
2022/05/28 08:01:47;;;;;;;3.72;2.40;;;18.20;99.90;;;;;;5048065;28;20104;-88
2022/05/28 08:04:13;;;;;;;4.82;2.20;;;18.20;99.90;;;;;;5053755;28;20120;-85
2022/05/28 08:06:40;;;;;;;4.47;2.38;;;18.30;99.90;;;;;;5054318;28;20108;-80
2022/05/28 08:09:07;;;;;;;6.65;2.55;;;18.50;99.90;;;;;;5054249;28;20036;-84
2022/05/28 08:11:33;;;;;;;6.65;2.05;;;18.50;99.90;;;;;;5054449;28;20618;-83
2022/05/28 08:13:59;;;;;;;3.42;2.00;;;18.60;99.90;;;;;;5049088;28;20495;-85
2022/05/28 08:16:26;;;;;;;6.57;2.20;;;18.80;99.90;;;;;;5041987;28;20025;-83
2022/05/28 08:18:52;;;;;;;5.53;2.42;;;18.80;99.90;;;;;;5033858;28;20451;-82
2022/05/28 08:24:03;;;;;;;5.30;2.10;;;19.30;99.90;;;;;;5034040;28;20064;-85
2022/05/28 08:26:29;;;;;;;3.85;2.25;;;19.30;99.90;;;;;;5042846;28;20017;-85
2022/05/28 08:28:55;;;;;;;12.25;2.78;;;19.90;99.90;;;;;;5053922;28;20039;-85
2022/05/28 08:31:22;;;;;;;5.75;1.98;;;20.00;99.90;;;;;;5035760;28;20033;-82
2022/05/28 08:33:48;;;;;;;4.57;2.42;;;20.40;99.90;;;;;;5034425;28;20116;-84
2022/05/28 08:36:15;;;;;;;9.30;2.30;;;20.50;99.90;;;;;;5052080;28;20035;-84
2022/05/28 08:38:41;;;;;;;8.73;2.17;;;20.80;99.90;;;;;;5018434;28;20404;-83
2022/05/28 08:41:14;;;;;;;6.07;2.13;;;21.00;99.90;;;;;;5035886;28;20017;-82
2022/05/28 08:56:39;;;;;;;5.32;2.13;;;22.00;98.30;;;;;;5137387;23;20532;-80
2022/05/28 08:59:17;;;;;;;2.60;1.80;;;22.10;97.20;;;;;;5003278;28;20030;-80
2022/05/28 09:01:46;;;;;;;8.15;2.22;;;22.20;96.90;;;;;;4993972;28;20025;-80
2022/05/28 09:04:15;;;;;;;4.90;1.98;;;22.60;96.60;;;;;;5007604;28;20489;-80
2022/05/28 09:06:46;;;;;;;5.38;1.50;;;22.70;95.40;;;;;;4993662;28;20097;-79
2022/05/28 09:09:14;;;;;;;3.80;1.83;;;22.60;95.90;;;;;;5009531;28;20517;-80
2022/05/28 09:12:26;;;;;;;3.28;1.67;;;22.90;95.30;;;;;;4993627;28;20068;-80
2022/05/28 09:14:52;;;;;;;3.17;1.50;;;22.90;94.40;;;;;;4993184;28;20524;-81
2022/05/28 09:17:34;;;;;;;4.63;1.50;;;22.70;94.80;;;;;;4989393;28;20026;-80
2022/05/28 09:20:02;;;;;;;;;;;22.80;94.20;;;;;;4993498;28;20034;-81
2022/05/28 09:22:28;;;;;;;4.75;1.90;;;22.90;94.00;;;;;;4988859;28;20262;-86
2022/05/28 09:24:54;;;;;;;2.90;1.60;;;22.90;94.00;;;;;;4982591;28;20029;-88
2022/05/28 09:27:56;;;;;;;3.63;1.83;;;23.20;93.70;;;;;;4995080;28;20021;-80
2022/05/28 09:30:40;;;;;;;6.28;1.70;;;23.60;93.70;;;;;;4996978;28;20023;-80
2022/05/28 09:33:43;;;;;;;6.75;1.55;;;23.80;93.00;;;;;;4993214;28;20034;-75
2022/05/28 09:36:21;;;;;;;6.07;1.95;;;24.00;92.50;;;;;;5006818;28;20033;-78
2022/05/28 09:38:52;;;;;;;3.25;1.75;;;24.30;91.90;;;;;;5004294;28;20034;-76
2022/05/28 09:41:27;;;;;;;3.28;1.50;;;24.00;91.70;;;;;;4993205;28;20023;-77
2022/05/28 09:44:01;;;;;;;9.13;1.80;;;23.20;91.70;;;;;;4992975;28;20193;-75
2022/05/28 09:46:39;;;;;;;5.75;1.48;;;22.90;92.40;;;;;;4992020;28;20025;-76
2022/05/28 09:49:21;;;;;;;4.45;1.88;;;22.90;92.70;;;;;;5005357;28;20041;-77
2022/05/28 09:51:57;;;;;;;7.03;1.77;;;23.00;92.60;;;;;;5013337;28;20022;-78
2022/05/28 09:54:35;;;;;;;12.10;2.20;;;23.00;92.60;;;;;;4973422;28;20039;-78
2022/05/28 09:57:10;;;;;;;9.52;1.90;;;22.90;92.10;;;;;;4967588;28;20043;-77
2022/05/28 09:59:51;;;;;;;7.15;1.60;;;23.20;91.70;;;;;;4973487;28;20039;-76
2022/05/28 10:02:28;;;;;;;6.07;2.30;;;23.50;91.90;;;;;;4973561;28;20487;-75
2022/05/28 10:05:11;;;;;;;6.93;1.98;;;23.90;90.80;;;;;;4956330;28;20325;-75
2022/05/28 10:07:50;;;;;;;2.45;1.40;;;23.80;90.50;;;;;;4973196;28;20561;-76
2022/05/28 10:10:28;;;;;;;10.75;1.70;;;24.00;90.60;;;;;;4981992;28;20022;-77
2022/05/28 10:13:05;;;;;;;15.73;2.10;;;24.40;89.90;;;;;;4985498;28;20029;-78
2022/05/28 10:15:37;;;;;;;6.80;1.48;;;24.50;88.90;;;;;;4985565;28;20042;-78
2022/05/28 10:18:08;;;;;;;7.20;1.70;;;24.50;87.90;;;;;;4985515;28;20019;-80
2022/05/28 10:20:34;;;;;;;4.32;1.80;;;24.90;88.90;;;;;;4977646;28;20034;-78
2022/05/28 10:23:07;;;;;;;6.40;1.30;;;24.40;87.50;;;;;;4962475;28;20030;-80
2022/05/28 10:25:38;;;;;;;4.70;1.20;;;24.10;88.00;;;;;;4979922;28;20489;-79
2022/05/28 10:28:06;;;;;;;2.83;1.15;;;24.30;86.50;;;;;;4982372;28;20019;-78
2022/05/28 10:30:39;;;;;;;4.63;1.77;;;24.70;84.70;;;;;;4983551;28;20502;-78
2022/05/28 10:33:12;;;;;;;4.40;1.40;;;25.00;85.70;;;;;;4976772;28;20023;-80
2022/05/28 10:35:38;;;;;;;7.50;1.50;;;25.00;84.00;;;;;;4980055;28;20100;-79
2022/05/28 10:38:08;;;;;;;4.03;1.40;;;24.70;83.80;;;;;;4981393;28;20082;-79
2022/05/28 10:40:38;;;;;;;7.88;1.70;;;24.70;84.70;;;;;;4983215;28;20023;-78
2022/05/28 10:43:10;;;;;;;4.95;1.30;;;24.70;84.20;;;;;;4981306;28;20054;-77
2022/05/28 10:45:47;;;;;;;4.43;1.70;;;24.30;83.60;;;;;;4976367;28;20023;-76
2022/05/28 10:48:45;;;;;;;4.22;1.60;;;24.30;85.70;;;;;;4976204;28;20050;-79
2022/05/28 10:51:42;;;;;;;3.25;1.40;;;24.60;85.10;;;;;;4915864;29;20415;-80
2022/05/28 10:54:42;;;;;;;16.65;2.10;;;24.60;85.20;;;;;;4932424;29;20068;-80
2022/05/28 10:57:26;;;;;;;2.85;1.20;;;24.70;84.00;;;;;;4912262;29;20479;-79
2022/05/28 10:59:54;;;;;;;3.47;1.50;;;24.50;84.10;;;;;;4907779;29;20042;-80
2022/05/28 11:02:34;;;;;;;5.90;1.52;;;24.50;85.00;;;;;;4901216;29;20036;-80
2022/05/28 11:05:17;;;;;;;3.78;1.35;;;24.70;82.10;;;;;;4901133;29;20119;-80
2022/05/28 11:08:03;;;;;;;3.78;1.35;;;23.90;81.90;;;;;;4919139;29;20044;-80
2022/05/28 11:10:34;;;;;;;3.72;1.63;;;24.40;82.90;;;;;;4916585;29;20040;-79
2022/05/28 11:13:19;;;;;;;;;;;24.50;83.50;;;;;;4925291;29;20035;-79
2022/05/28 11:15:56;;;;;;;8.25;1.65;;;24.30;81.90;;;;;;4934008;29;19907;-79
2022/05/28 11:18:55;;;;;;;2.45;1.10;;;24.40;81.20;;;;;;4924021;29;20040;-79
2022/05/28 11:21:36;;;;;;;5.45;1.20;;;24.40;83.00;;;;;;4933434;29;20032;-80
2022/05/28 11:24:08;;;;;;;2.70;1.63;;;24.40;81.10;;;;;;4929116;29;20605;-80
2022/05/28 11:26:36;;;;;;;15.02;2.00;;;24.50;80.50;;;;;;4932287;28;20038;-81
2022/05/28 11:29:14;;;;;;;3.92;1.35;;;24.80;79.60;;;;;;4977374;28;20037;-78
2022/05/28 11:31:57;;;;;;;12.27;1.70;;;25.20;80.40;;;;;;4976000;28;20027;-78
2022/05/28 11:34:40;;;;;;;5.78;1.30;;;24.90;79.00;;;;;;4976430;28;20379;-74
2022/05/28 11:37:09;;;;;;;5.47;1.33;;;24.60;78.00;;;;;;4973673;28;20537;-75
2022/05/28 11:40:20;;;;;;;7.57;1.30;;;24.70;79.30;;;;;;4983132;28;20070;-74
2022/05/28 11:42:51;;;;;;;5.97;1.05;;;25.00;78.70;;;;;;4915903;29;20037;-75
2022/05/28 11:45:27;;;;;;;;;;;25.10;78.60;;;;;;4916141;29;20123;-77
2022/05/28 11:47:56;;;;;;;6.38;1.02;;;25.20;78.50;;;;;;4916066;29;19910;-75
2022/05/28 11:54:07;;;;;;;3.13;1.40;;;25.30;79.10;;;;;;4916477;29;20038;-76
2022/05/28 11:56:33;;;;;;;5.77;1.10;;;24.70;78.10;;;;;;4920592;29;20049;-75
2022/05/28 11:59:13;;;;;;;1.60;0.90;;;24.60;79.00;;;;;;4915756;29;20071;-76
2022/05/28 12:01:51;;;;;;;3.50;1.10;;;24.70;78.90;;;;;;4924611;29;20138;-75
2022/05/28 12:04:18;;;;;;;2.90;1.40;;;24.70;79.20;;;;;;4918560;29;20059;-75
2022/05/28 12:07:11;;;;;;;4.70;1.02;;;24.70;79.60;;;;;;4925673;29;20039;-75
2022/05/28 12:09:44;;;;;;;5.80;1.20;;;24.90;80.30;;;;;;4916979;29;20107;-75
2022/05/28 12:12:20;;;;;;;2.55;1.38;;;24.70;79.80;;;;;;4914675;29;20035;-76
2022/05/28 12:15:00;;;;;;;4.63;1.27;;;24.50;80.80;;;;;;4916685;29;20039;-80
2022/05/28 12:17:28;;;;;;;4.40;1.10;;;24.50;80.70;;;;;;4927654;28;20499;-75
2022/05/28 12:19:58;;;;;;;5.95;1.60;;;24.90;80.30;;;;;;4990182;28;20026;-74
2022/05/28 12:22:32;;;;;;;3.05;1.30;;;25.30;79.30;;;;;;4990900;28;20077;-75
2022/05/28 12:25:03;;;;;;;5.25;1.60;;;25.20;80.40;;;;;;4969857;28;20038;-76
2022/05/28 12:27:42;;;;;;;4.13;1.40;;;25.60;78.00;;;;;;4984580;28;20014;-75
2022/05/28 12:30:23;;;;;;;5.88;1.58;;;25.30;78.30;;;;;;4983185;28;20031;-74
2022/05/28 12:32:50;;;;;;;2.80;1.05;;;25.60;78.70;;;;;;4989273;28;20050;-75
2022/05/28 12:35:16;;;;;;;3.63;1.10;;;25.60;78.70;;;;;;4987258;28;20390;-75
2022/05/28 12:37:56;;;;;;;2.72;1.10;;;25.50;78.20;;;;;;4960642;28;20027;-75
2022/05/28 12:40:22;;;;;;;2.90;1.27;;;25.40;79.10;;;;;;4963608;28;20493;-75
2022/05/28 12:42:48;;;;;;;3.85;1.50;;;25.80;79.60;;;;;;4965113;28;20114;-75
2022/05/28 12:45:39;;;;;;;3.63;1.13;;;25.90;77.70;;;;;;4977922;28;20030;-77
2022/05/28 12:48:14;;;;;;;3.85;1.25;;;26.30;77.30;;;;;;4977885;28;20394;-79
2022/05/28 12:51:12;;;;;;;3.10;1.50;;;26.50;76.10;;;;;;4979550;28;20022;-79
2022/05/28 12:54:07;;;;;;;7.53;1.42;;;26.50;75.80;;;;;;4988577;28;20022;-79
2022/05/28 12:56:35;;;;;;;1.42;0.98;;;26.50;73.00;;;;;;4963499;28;20066;-78
2022/05/28 12:59:23;;;;;;;2.53;1.05;;;26.30;72.30;;;;;;4974706;28;20093;-79
2022/05/28 13:02:15;;;;;;;3.83;0.90;;;26.50;69.90;;;;;;4974753;28;20035;-79
2022/05/28 13:04:47;;;;;;;3.08;1.20;;;26.20;69.90;;;;;;4974889;28;20031;-79
2022/05/28 13:07:52;;;;;;;1.55;0.77;;;26.20;70.50;;;;;;4974403;28;20034;-79
2022/05/28 13:10:24;;;;;;;3.17;1.05;;;26.30;71.20;;;;;;4973687;28;20073;-79
2022/05/28 13:12:59;;;;;;;4.22;1.17;;;26.60;71.90;;;;;;4974666;28;20062;-79
2022/05/28 13:15:55;;;;;;;3.47;1.10;;;26.90;71.60;;;;;;4957161;28;20035;-79
2022/05/28 13:18:36;;;;;;;3.10;1.23;;;26.90;70.70;;;;;;4974519;28;20029;-78
2022/05/28 13:21:05;;;;;;;2.33;0.95;;;26.80;68.60;;;;;;4974064;28;20031;-79
2022/05/28 13:24:02;;;;;;;2.60;0.80;;;27.20;68.70;;;;;;4974137;28;20022;-80
2022/05/28 13:26:48;;;;;;;2.00;0.98;;;27.30;67.40;;;;;;4978838;28;20113;-79
2022/05/28 13:29:15;;;;;;;5.63;1.00;;;27.00;68.70;;;;;;4974324;28;20034;-79
2022/05/28 13:31:48;;;;;;;2.17;1.20;;;27.20;67.10;;;;;;4974380;28;20027;-79